Terminal Aerodrome Forecast
Issued by NWS St Louis, MO

Home | Current Version | Previous Version | Text Only | Print | Product List | Glossary On
Versions: 1 2 3 4 5 6 7 8 9 10 11 12 13 14 15 16 17 18 19 20 21 22 23
000
FTUS43 KLSX 042339
TAFCOU
TAF
KCOU 042339Z 0500/0524 27004KT P6SM OVC019
     FM050100 26004KT P6SM SCT250
      TEMPO 0505/0509 4SM BR
     FM050900 00000KT 2SM BR SCT003
     FM051500 16005KT P6SM SCT250=

USA.gov is the U.S. government's official web portal to all federal, state and local government web resources and services.